createdAt,value
2022-07-26T00:00:54.575Z,26.90
2022-07-26T00:03:21.859Z,26.90
2022-07-26T00:05:50.286Z,26.90
2022-07-26T00:08:17.586Z,26.90
2022-07-26T00:10:48.963Z,26.90
2022-07-26T00:13:18.091Z,26.90
2022-07-26T00:15:45.883Z,26.80
2022-07-26T00:18:14.271Z,26.70
2022-07-26T00:20:42.053Z,26.70
2022-07-26T00:23:09.727Z,26.70
2022-07-26T00:25:37.585Z,26.60
2022-07-26T00:28:05.932Z,26.60
2022-07-26T00:36:11.451Z,26.40
2022-07-26T00:38:38.794Z,26.40
2022-07-26T00:41:06.991Z,26.40
2022-07-26T00:43:34.270Z,26.30
2022-07-26T00:46:03.739Z,26.30
2022-07-26T00:48:30.949Z,26.30
2022-07-26T00:50:58.260Z,26.30
2022-07-26T00:53:25.583Z,26.20
2022-07-26T00:55:53.287Z,26.20
2022-07-26T00:58:20.447Z,26.20
2022-07-26T01:00:47.709Z,26.20
2022-07-26T01:03:15.017Z,26.10
2022-07-26T01:05:42.894Z,26.10
2022-07-26T01:08:10.383Z,26.10
2022-07-26T01:10:40.660Z,26.10
2022-07-26T01:13:10.502Z,26.10
2022-07-26T01:15:39.082Z,26.10
2022-07-26T01:18:06.364Z,26.10
2022-07-26T01:20:33.504Z,26.20
2022-07-26T01:23:00.762Z,26.10
2022-07-26T01:25:43.186Z,26.10
2022-07-26T01:28:11.310Z,26.10
2022-07-26T01:30:48.007Z,26.10
2022-07-26T01:33:15.217Z,26.10
2022-07-26T01:35:42.515Z,26.10
2022-07-26T01:38:11.241Z,26.00
2022-07-26T01:40:38.412Z,26.10
2022-07-26T01:43:05.608Z,26.00
2022-07-26T01:45:32.819Z,26.00
2022-07-26T01:48:00.147Z,26.00
2022-07-26T01:50:27.686Z,26.00
2022-07-26T01:52:54.867Z,26.00
2022-07-26T01:55:22.071Z,26.00
2022-07-26T01:57:49.253Z,26.00
2022-07-26T02:00:16.774Z,26.00
2022-07-26T02:02:44.034Z,26.00
2022-07-26T02:05:12.689Z,26.00
2022-07-26T02:07:44.460Z,26.10
2022-07-26T02:10:13.213Z,26.10
2022-07-26T02:12:42.630Z,26.10
2022-07-26T02:15:11.413Z,26.20
2022-07-26T02:17:38.757Z,26.20
2022-07-26T02:20:07.949Z,26.20
2022-07-26T02:22:35.829Z,26.20
2022-07-26T02:25:05.531Z,26.20
2022-07-26T02:27:33.246Z,26.20
2022-07-26T02:30:00.488Z,26.20
2022-07-26T02:32:27.758Z,26.10
2022-07-26T02:34:54.894Z,26.10
2022-07-26T02:37:22.165Z,26.10
2022-07-26T02:39:49.284Z,26.10
2022-07-26T02:42:16.484Z,26.10
2022-07-26T02:44:43.591Z,26.10
2022-07-26T02:47:12.680Z,26.00
2022-07-26T02:49:40.065Z,26.00
2022-07-26T02:52:07.309Z,26.00
2022-07-26T02:54:34.490Z,26.00
2022-07-26T02:57:01.851Z,26.00
2022-07-26T02:59:29.478Z,25.90
2022-07-26T03:01:56.690Z,25.90
2022-07-26T03:04:24.161Z,25.90
2022-07-26T03:06:51.386Z,25.90
2022-07-26T03:09:18.585Z,25.80
2022-07-26T03:11:45.793Z,25.80
2022-07-26T03:14:13.130Z,25.80
2022-07-26T03:16:40.378Z,25.70
2022-07-26T03:19:07.533Z,25.70
2022-07-26T03:21:34.711Z,25.60
2022-07-26T03:24:01.888Z,25.60
2022-07-26T03:26:29.499Z,25.50
2022-07-26T03:28:56.940Z,25.50
2022-07-26T03:31:24.260Z,25.40
2022-07-26T03:33:51.438Z,25.40
2022-07-26T03:36:18.801Z,25.30
2022-07-26T03:38:46.047Z,25.30
2022-07-26T03:41:13.650Z,25.30
2022-07-26T03:43:41.732Z,25.20
2022-07-26T03:46:09.197Z,25.10
2022-07-26T03:48:36.593Z,25.00
2022-07-26T03:51:04.070Z,24.90
2022-07-26T03:53:31.293Z,24.90
2022-07-26T03:56:18.162Z,24.80
2022-07-26T03:58:45.468Z,24.80
2022-07-26T04:01:12.703Z,24.70
2022-07-26T04:03:42.174Z,24.70
2022-07-26T04:06:14.981Z,24.60
2022-07-26T04:08:42.809Z,24.40
2022-07-26T04:11:09.962Z,24.40
2022-07-26T04:13:37.228Z,24.30
2022-07-26T04:16:04.612Z,24.20
2022-07-26T04:18:32.101Z,24.10
2022-07-26T04:20:59.722Z,24.00
2022-07-26T04:23:26.893Z,23.90
2022-07-26T04:25:54.133Z,23.90
2022-07-26T04:28:21.568Z,23.80
2022-07-26T04:30:49.949Z,23.70
2022-07-26T04:33:17.158Z,23.60
2022-07-26T04:35:44.406Z,23.60
2022-07-26T04:38:11.566Z,23.60
2022-07-26T04:40:40.722Z,23.60
2022-07-26T04:43:10.098Z,23.60
2022-07-26T04:45:42.938Z,23.70
2022-07-26T04:48:10.140Z,23.70
2022-07-26T04:50:37.820Z,23.70
2022-07-26T04:53:05.175Z,23.80
2022-07-26T04:55:32.697Z,23.80
2022-07-26T04:58:00.001Z,23.70
2022-07-26T05:00:27.183Z,23.70
2022-07-26T05:02:57.737Z,23.80
2022-07-26T05:05:26.882Z,23.90
2022-07-26T05:07:57.061Z,23.80
2022-07-26T05:10:33.930Z,23.80
2022-07-26T05:13:04.112Z,23.90
2022-07-26T05:15:35.556Z,23.90
2022-07-26T05:18:10.406Z,23.90
2022-07-26T05:20:38.959Z,23.90
2022-07-26T05:23:06.481Z,23.90
2022-07-26T05:25:33.905Z,24.00
2022-07-26T05:28:01.167Z,24.00
2022-07-26T05:30:28.553Z,24.00
2022-07-26T05:32:55.804Z,24.00
2022-07-26T05:35:24.898Z,24.10
2022-07-26T05:37:52.152Z,24.10
2022-07-26T05:40:19.601Z,24.00
2022-07-26T05:42:46.794Z,24.00
2022-07-26T05:45:14.088Z,23.90
2022-07-26T05:47:41.240Z,23.90
2022-07-26T05:50:08.886Z,23.90
2022-07-26T05:52:36.086Z,23.80
2022-07-26T05:55:03.375Z,23.80
2022-07-26T05:57:30.620Z,23.70
2022-07-26T05:59:58.159Z,23.60
2022-07-26T06:02:25.850Z,23.50
2022-07-26T06:04:53.135Z,23.40
2022-07-26T06:07:20.645Z,23.30
2022-07-26T06:09:47.902Z,23.30
2022-07-26T06:12:15.190Z,23.30
2022-07-26T06:14:42.463Z,23.30
2022-07-26T06:17:15.819Z,23.30
2022-07-26T06:19:47.548Z,23.20
2022-07-26T06:22:15.579Z,23.20
2022-07-26T06:24:42.798Z,23.20
2022-07-26T06:27:10.014Z,23.20
2022-07-26T06:29:37.215Z,23.30
2022-07-26T06:32:04.580Z,23.30
2022-07-26T06:34:31.916Z,23.30
2022-07-26T06:36:59.209Z,23.20
2022-07-26T06:39:26.557Z,23.30
2022-07-26T06:41:53.733Z,23.20
2022-07-26T06:44:20.907Z,23.20
2022-07-26T06:46:48.300Z,23.10
2022-07-26T06:49:21.946Z,23.10
2022-07-26T06:51:49.687Z,23.10
2022-07-26T06:54:16.993Z,23.20
2022-07-26T06:56:45.831Z,23.20
2022-07-26T06:59:13.059Z,23.20
2022-07-26T07:01:51.562Z,23.20
2022-07-26T07:04:29.503Z,23.30
2022-07-26T07:06:57.591Z,23.30
2022-07-26T07:09:25.515Z,23.30
2022-07-26T07:11:57.387Z,23.30
2022-07-26T07:14:28.189Z,23.20
2022-07-26T07:16:56.612Z,23.30
2022-07-26T07:19:24.670Z,23.50
2022-07-26T07:21:52.317Z,23.60
2022-07-26T07:24:25.899Z,23.70
2022-07-26T07:26:53.180Z,23.80
2022-07-26T07:29:20.442Z,24.00
2022-07-26T07:31:49.748Z,24.10
2022-07-26T07:34:23.855Z,24.20
2022-07-26T07:36:51.884Z,24.20
2022-07-26T07:39:19.642Z,24.20
2022-07-26T07:41:48.547Z,24.20
2022-07-26T07:44:15.879Z,24.10
2022-07-26T07:46:45.693Z,24.00
2022-07-26T07:49:13.409Z,23.90
2022-07-26T07:51:40.836Z,23.90
2022-07-26T07:54:09.349Z,23.90
2022-07-26T07:56:36.604Z,23.80
2022-07-26T07:59:04.546Z,23.80
2022-07-26T08:01:39.443Z,23.90
2022-07-26T08:04:09.255Z,23.90
2022-07-26T08:06:36.999Z,24.00
2022-07-26T08:09:06.518Z,24.00
2022-07-26T08:11:34.569Z,24.10
2022-07-26T08:14:02.323Z,24.10
2022-07-26T08:16:29.862Z,24.20
2022-07-26T08:18:58.559Z,24.20
2022-07-26T08:21:28.139Z,24.20
2022-07-26T08:23:57.515Z,24.10
2022-07-26T08:26:27.325Z,24.10
2022-07-26T08:28:59.873Z,24.20
2022-07-26T08:31:30.916Z,24.20
2022-07-26T08:33:58.384Z,24.10
2022-07-26T08:36:31.953Z,24.20
2022-07-26T08:39:01.213Z,24.20
2022-07-26T08:41:28.987Z,24.20
2022-07-26T08:44:05.495Z,24.20
2022-07-26T08:46:38.565Z,24.40
2022-07-26T08:49:12.363Z,24.40
2022-07-26T08:51:43.268Z,24.50
2022-07-26T08:54:13.846Z,24.60
2022-07-26T08:56:49.155Z,24.60
2022-07-26T08:59:21.671Z,24.60
2022-07-26T09:02:01.553Z,24.70
2022-07-26T09:04:33.186Z,24.80
2022-07-26T09:07:13.816Z,25.10
2022-07-26T09:09:56.281Z,25.20
2022-07-26T09:12:25.628Z,25.30
2022-07-26T09:14:54.267Z,25.30
2022-07-26T09:17:24.225Z,25.30
2022-07-26T09:20:40.231Z,25.30
2022-07-26T09:23:12.012Z,25.30
2022-07-26T09:25:41.950Z,25.10
2022-07-26T09:28:44.932Z,25.00
2022-07-26T09:31:13.635Z,25.00
2022-07-26T09:33:49.028Z,25.00
2022-07-26T09:36:21.020Z,24.90
2022-07-26T09:38:53.990Z,24.90
2022-07-26T09:41:22.352Z,24.80
2022-07-26T09:43:54.011Z,24.90
2022-07-26T09:46:26.542Z,24.80
2022-07-26T09:49:11.900Z,24.80
2022-07-26T09:51:46.203Z,24.90
2022-07-26T09:54:20.257Z,24.80
2022-07-26T09:56:51.740Z,24.80
2022-07-26T09:59:22.983Z,24.90
2022-07-26T10:01:52.939Z,24.80
2022-07-26T10:04:21.213Z,24.80
2022-07-26T10:06:50.178Z,24.80
2022-07-26T10:09:20.257Z,24.80
2022-07-26T10:12:00.813Z,24.80
2022-07-26T10:14:42.934Z,24.80
2022-07-26T10:17:31.433Z,24.80
2022-07-26T10:20:09.401Z,24.80
2022-07-26T10:22:51.018Z,24.90
2022-07-26T10:25:18.301Z,24.90
2022-07-26T10:27:52.072Z,24.90
2022-07-26T10:30:22.734Z,25.10
2022-07-26T10:33:20.280Z,25.30
2022-07-26T10:35:49.881Z,25.50
2022-07-26T10:38:26.016Z,25.70
2022-07-26T10:40:56.378Z,25.70
2022-07-26T10:43:40.237Z,25.80
2022-07-26T10:46:20.809Z,25.90
2022-07-26T10:49:03.760Z,26.00
2022-07-26T10:51:34.794Z,26.10
2022-07-26T10:54:12.080Z,26.10
2022-07-26T10:56:40.156Z,26.00
2022-07-26T10:59:07.804Z,25.90
2022-07-26T11:01:41.587Z,26.00
2022-07-26T11:04:25.427Z,26.00
2022-07-26T11:06:54.433Z,26.20
2022-07-26T11:09:23.672Z,26.40
2022-07-26T11:11:52.552Z,26.60
2022-07-26T11:14:19.844Z,26.70
2022-07-26T11:16:53.063Z,26.80
2022-07-26T11:19:23.436Z,26.90
2022-07-26T11:22:01.773Z,27.00
2022-07-26T11:24:29.533Z,27.10
2022-07-26T11:27:02.331Z,27.30
2022-07-26T11:29:38.716Z,27.50
2022-07-26T11:32:23.146Z,27.70
2022-07-26T11:35:04.581Z,27.90
2022-07-26T11:37:32.091Z,27.90
2022-07-26T11:39:59.298Z,27.90
2022-07-26T11:42:26.495Z,28.00
2022-07-26T11:44:56.058Z,28.10
2022-07-26T11:47:25.897Z,28.20
2022-07-26T11:50:13.872Z,28.50
2022-07-26T11:52:41.926Z,28.50
2022-07-26T11:55:12.063Z,28.40
2022-07-26T11:57:39.302Z,28.30
2022-07-26T12:00:07.275Z,28.30
2022-07-26T12:02:35.783Z,28.20
2022-07-26T12:05:20.770Z,28.30
2022-07-26T12:08:00.750Z,28.40
2022-07-26T12:10:29.751Z,28.50
2022-07-26T12:13:17.231Z,28.60
2022-07-26T12:15:52.854Z,28.60
2022-07-26T12:18:28.740Z,28.40
2022-07-26T12:21:07.032Z,28.40
2022-07-26T12:23:46.495Z,28.50
2022-07-26T12:26:20.416Z,28.70
2022-07-26T12:28:47.696Z,28.90
2022-07-26T12:31:31.353Z,28.90
2022-07-26T12:33:59.036Z,29.10
2022-07-26T12:36:28.055Z,29.40
2022-07-26T12:39:01.371Z,29.40
2022-07-26T12:41:37.366Z,29.60
2022-07-26T12:44:06.323Z,29.80
2022-07-26T12:46:37.715Z,30.00
2022-07-26T12:49:05.480Z,30.10
2022-07-26T12:51:32.842Z,29.90
2022-07-26T12:54:00.649Z,29.60
2022-07-26T12:56:28.018Z,29.20
2022-07-26T12:59:01.773Z,29.00
2022-07-26T13:01:31.397Z,28.70
2022-07-26T13:04:00.999Z,28.30
2022-07-26T13:06:28.331Z,28.00
2022-07-26T13:08:56.826Z,27.60
2022-07-26T13:11:25.948Z,27.20
2022-07-26T13:13:53.284Z,26.80
2022-07-26T13:16:25.138Z,26.50
2022-07-26T13:18:53.849Z,26.20
2022-07-26T13:21:24.066Z,26.10
2022-07-26T13:23:51.326Z,26.00
2022-07-26T13:26:18.815Z,25.80
2022-07-26T13:28:49.575Z,25.60
2022-07-26T13:31:18.361Z,25.50
2022-07-26T13:33:47.114Z,25.50
2022-07-26T13:36:14.516Z,25.50
2022-07-26T13:38:42.880Z,25.50
2022-07-26T13:41:10.317Z,25.30
2022-07-26T13:43:37.484Z,25.20
2022-07-26T13:46:04.968Z,25.20
2022-07-26T13:48:33.592Z,25.10
2022-07-26T13:51:00.963Z,25.10
2022-07-26T13:53:30.068Z,25.10
2022-07-26T13:55:59.669Z,25.10
2022-07-26T13:58:26.924Z,25.20
2022-07-26T14:00:54.247Z,25.30
2022-07-26T14:03:22.924Z,25.50
2022-07-26T14:05:50.193Z,25.50
2022-07-26T14:08:20.104Z,25.70
2022-07-26T14:10:50.981Z,25.70
2022-07-26T14:13:19.438Z,25.60
2022-07-26T14:15:46.747Z,25.60
2022-07-26T14:18:15.350Z,25.60
2022-07-26T14:20:43.777Z,25.50
2022-07-26T14:23:11.958Z,25.30
2022-07-26T14:25:45.190Z,25.20
2022-07-26T14:28:12.677Z,25.10
2022-07-26T14:30:47.900Z,25.00
2022-07-26T14:33:15.346Z,24.90
2022-07-26T14:35:44.097Z,25.00
2022-07-26T14:38:11.831Z,25.10
2022-07-26T14:40:39.886Z,25.20
2022-07-26T14:43:07.489Z,25.40
2022-07-26T14:45:34.725Z,25.40
2022-07-26T14:48:01.985Z,25.40
2022-07-26T14:50:38.512Z,25.70
2022-07-26T14:53:18.892Z,25.90
2022-07-26T14:55:46.213Z,26.30
2022-07-26T15:01:02.817Z,26.60
2022-07-26T15:06:18.903Z,26.50
2022-07-26T15:09:11.480Z,26.40
2022-07-26T15:11:43.409Z,26.50
2022-07-26T15:19:41.586Z,26.50
2022-07-26T15:22:09.640Z,26.50
2022-07-26T15:24:40.134Z,26.50
2022-07-26T15:27:08.054Z,26.60
2022-07-26T15:29:38.775Z,26.70
2022-07-26T15:32:06.850Z,26.70
2022-07-26T15:34:34.360Z,26.70
2022-07-26T15:37:01.713Z,26.80
2022-07-26T15:39:28.921Z,26.90
2022-07-26T15:41:56.182Z,26.80
2022-07-26T15:44:25.490Z,26.70
2022-07-26T15:52:24.109Z,26.50
2022-07-26T15:54:53.267Z,26.50
2022-07-26T16:03:21.031Z,26.40
2022-07-26T16:05:56.991Z,26.30
2022-07-26T16:09:14.010Z,26.30
2022-07-26T16:11:47.197Z,26.40
2022-07-26T16:14:34.777Z,26.40
2022-07-26T16:20:33.364Z,26.30
2022-07-26T16:26:25.940Z,26.50
2022-07-26T16:28:54.542Z,26.90
2022-07-26T16:31:28.375Z,27.20
2022-07-26T16:33:55.797Z,27.30
2022-07-26T16:36:23.485Z,27.20
2022-07-26T16:38:50.717Z,27.30
2022-07-26T16:41:18.043Z,27.50
2022-07-26T16:43:45.520Z,27.60
2022-07-26T16:46:14.476Z,27.90
2022-07-26T16:48:41.918Z,27.70
2022-07-26T16:51:09.173Z,27.50
2022-07-26T16:53:36.361Z,27.30
2022-07-26T16:56:03.565Z,27.00
2022-07-26T16:58:30.764Z,26.80
2022-07-26T17:00:58.154Z,26.60
2022-07-26T17:03:25.708Z,26.50
2022-07-26T17:05:52.926Z,26.40
2022-07-26T17:08:20.469Z,26.30
2022-07-26T17:10:47.716Z,26.10
2022-07-26T17:13:14.924Z,26.10
2022-07-26T17:15:42.112Z,26.00
2022-07-26T17:18:09.309Z,26.00
2022-07-26T17:20:37.231Z,25.90
2022-07-26T17:23:04.961Z,25.90
2022-07-26T17:25:32.386Z,25.80
2022-07-26T17:27:59.705Z,25.70
2022-07-26T17:30:28.393Z,25.50
2022-07-26T17:32:55.876Z,25.50
2022-07-26T17:35:23.100Z,25.40
2022-07-26T17:37:50.457Z,25.30
2022-07-26T17:40:18.029Z,25.20
2022-07-26T17:42:45.827Z,25.20
2022-07-26T17:45:13.154Z,25.20
2022-07-26T17:47:41.522Z,25.10
2022-07-26T17:50:34.013Z,25.10
2022-07-26T17:52:56.519Z,25.10
2022-07-26T17:55:24.213Z,25.20
2022-07-26T17:57:54.648Z,25.10
2022-07-26T18:00:26.320Z,25.10
2022-07-26T18:02:59.860Z,25.00
2022-07-26T18:05:33.346Z,24.90
2022-07-26T18:08:03.336Z,24.80
2022-07-26T18:10:30.492Z,24.70
2022-07-26T18:12:57.621Z,24.50
2022-07-26T18:15:24.946Z,24.40
2022-07-26T18:17:52.265Z,24.20
2022-07-26T18:20:19.759Z,24.00
2022-07-26T18:22:50.269Z,23.80
2022-07-26T18:25:18.112Z,23.70
2022-07-26T18:27:47.866Z,23.50
2022-07-26T18:30:15.148Z,23.40
2022-07-26T18:32:42.313Z,23.30
2022-07-26T18:35:11.870Z,23.20
2022-07-26T18:37:40.574Z,23.10
2022-07-26T18:40:08.877Z,22.90
2022-07-26T18:42:37.879Z,22.80
2022-07-26T18:45:06.583Z,22.70
2022-07-26T18:47:33.866Z,22.60
2022-07-26T18:50:01.117Z,22.60
2022-07-26T18:52:31.912Z,22.50
2022-07-26T18:55:11.728Z,22.40
2022-07-26T18:57:41.354Z,22.30
2022-07-26T19:00:11.847Z,22.20
2022-07-26T19:02:44.549Z,22.20
2022-07-26T19:05:16.479Z,22.10
2022-07-26T19:07:44.037Z,22.00
2022-07-26T19:10:13.236Z,22.00
2022-07-26T19:12:40.951Z,22.00
2022-07-26T19:15:09.155Z,21.90
2022-07-26T19:17:37.231Z,21.90
2022-07-26T19:20:06.818Z,21.90
2022-07-26T19:22:34.211Z,21.90
2022-07-26T19:25:01.517Z,21.80
2022-07-26T19:27:29.088Z,21.80
2022-07-26T19:29:57.243Z,21.80
2022-07-26T19:32:30.361Z,21.70
2022-07-26T19:35:09.082Z,21.70
2022-07-26T19:37:38.266Z,21.70
2022-07-26T19:40:06.660Z,21.70
2022-07-26T19:42:42.485Z,21.70
2022-07-26T19:45:12.133Z,21.70
2022-07-26T19:47:41.714Z,21.70
2022-07-26T19:50:12.027Z,21.60
2022-07-26T19:52:42.390Z,21.60
2022-07-26T19:55:15.666Z,21.60
2022-07-26T19:57:47.202Z,21.60
2022-07-26T20:00:15.066Z,21.50
2022-07-26T20:02:43.154Z,21.40
2022-07-26T20:05:12.669Z,21.40
2022-07-26T20:07:41.737Z,21.40
2022-07-26T20:10:12.175Z,21.40
2022-07-26T20:12:42.969Z,21.40
2022-07-26T20:15:11.281Z,21.40
2022-07-26T20:17:42.894Z,21.30
2022-07-26T20:20:11.281Z,21.30
2022-07-26T20:22:41.539Z,21.30
2022-07-26T20:25:21.081Z,21.30
2022-07-26T20:27:52.259Z,21.30
2022-07-26T20:30:19.613Z,21.30
2022-07-26T20:32:46.973Z,21.30
2022-07-26T20:35:14.475Z,21.30
2022-07-26T20:37:43.228Z,21.30
2022-07-26T20:40:14.927Z,21.40
2022-07-26T20:48:18.178Z,21.30
2022-07-26T20:50:47.930Z,21.30
2022-07-26T21:07:11.392Z,21.30
2022-07-26T21:09:39.016Z,21.30
2022-07-26T21:14:55.898Z,21.30
2022-07-26T21:17:23.574Z,21.30
2022-07-26T21:20:09.015Z,21.30
2022-07-26T21:22:39.656Z,21.30
2022-07-26T21:25:11.457Z,21.30
2022-07-26T21:27:39.509Z,21.30
2022-07-26T21:30:11.238Z,21.30
2022-07-26T21:32:46.086Z,21.30
2022-07-26T21:35:15.588Z,21.30
2022-07-26T21:37:46.313Z,21.20
2022-07-26T21:40:15.187Z,21.30
2022-07-26T21:45:26.667Z,21.20
2022-07-26T21:47:55.310Z,21.20
2022-07-26T21:50:32.637Z,21.20
2022-07-26T21:53:01.503Z,21.20
2022-07-26T21:55:38.658Z,21.20
2022-07-26T21:58:06.523Z,21.20
2022-07-26T22:00:40.111Z,21.20
2022-07-26T22:03:08.090Z,21.20
2022-07-26T22:05:40.645Z,21.20
2022-07-26T22:08:22.549Z,21.20
2022-07-26T22:10:50.122Z,21.20
2022-07-26T22:13:18.290Z,21.20
2022-07-26T22:16:09.925Z,21.20
2022-07-26T22:18:53.817Z,21.20
2022-07-26T22:24:55.762Z,21.10
2022-07-26T22:27:29.055Z,21.20
2022-07-26T22:30:03.247Z,21.10
2022-07-26T22:32:35.379Z,21.10
2022-07-26T22:35:03.027Z,21.10
2022-07-26T22:37:32.821Z,21.10
2022-07-26T22:40:00.542Z,21.10
2022-07-26T22:42:38.417Z,21.00
2022-07-26T22:45:30.011Z,21.00
2022-07-26T22:53:45.743Z,21.00
2022-07-26T22:56:55.045Z,21.00
2022-07-26T23:05:13.933Z,21.00
2022-07-26T23:07:41.552Z,21.00
2022-07-26T23:10:12.992Z,21.00
2022-07-26T23:12:40.550Z,20.90
2022-07-26T23:15:11.180Z,20.90
2022-07-26T23:17:38.974Z,20.90
2022-07-26T23:20:09.742Z,20.90
2022-07-26T23:22:38.434Z,20.90
2022-07-26T23:25:06.567Z,20.90
2022-07-26T23:27:38.299Z,20.90
2022-07-26T23:30:06.658Z,20.90
2022-07-26T23:32:37.034Z,20.90
2022-07-26T23:35:07.411Z,20.80
2022-07-26T23:37:34.966Z,20.90
2022-07-26T23:40:04.852Z,20.90
2022-07-26T23:42:34.061Z,20.80
2022-07-26T23:45:02.915Z,20.80
2022-07-26T23:47:33.844Z,20.80
2022-07-26T23:50:07.949Z,20.70
2022-07-26T23:52:40.296Z,20.70
2022-07-26T23:55:08.642Z,20.70
2022-07-26T23:57:37.544Z,20.70
